Time;durP1;ratioP1;P1;durP2;ratioP2;P2;SDS_P1;SDS_P2;PMS_P1;PMS_P2;Temp;Humidity;BMP_temperature;BMP_pressure;BME280_temperature;BME280_humidity;BME280_pressure;Samples;Min_cycle;Max_cycle;Signal;HPM_P1;HPM_P2
2022/04/06 00:02:09;;;;;;;5.07;4.00;;;;;;;;;;5114199;28;20199;-91
2022/04/06 00:04:37;;;;;;;4.47;3.70;;;;;;;;;;5114263;28;20211;-91
2022/04/06 00:07:04;;;;;;;5.77;3.47;;;;;;;;;;5109665;28;20309;-91
2022/04/06 00:09:32;;;;;;;3.97;3.50;;;;;;;;;;5111063;28;20686;-91
2022/04/06 00:11:59;;;;;;;5.17;3.10;;;;;;;;;;5114113;28;20204;-91
2022/04/06 00:14:28;;;;;;;5.47;3.70;;;;;;;;;;5114243;28;20211;-92
2022/04/06 00:16:58;;;;;;;3.47;3.17;;;;;;;;;;5107034;28;20235;-92
2022/04/06 00:19:25;;;;;;;3.63;3.33;;;;;;;;;;5113709;28;20261;-91
2022/04/06 00:21:52;;;;;;;4.13;3.57;;;;;;;;;;5114606;28;20204;-91
2022/04/06 00:24:20;;;;;;;4.97;3.50;;;;;;;;;;5114520;27;20555;-91
2022/04/06 00:26:47;;;;;;;4.37;3.50;;;;;;;;;;5100028;28;20233;-91
2022/04/06 00:29:14;;;;;;;3.50;3.00;;;;;;;;;;5106343;28;20204;-91
2022/04/06 00:31:43;;;;;;;4.20;3.80;;;;;;;;;;5113821;28;20200;-91
2022/04/06 00:34:10;;;;;;;5.57;3.60;;;;;;;;;;5113529;28;20731;-91
2022/04/06 00:36:38;;;;;;;4.20;3.80;;;;;;;;;;5102924;28;20220;-91
2022/04/06 00:39:05;;;;;;;3.67;3.37;;;;;;;;;;5105155;28;20216;-91
2022/04/06 00:41:32;;;;;;;3.60;3.30;;;;;;;;;;5114006;28;20208;-91
2022/04/06 00:44:21;;;;;;;4.63;3.40;;;;;;;;;;5110280;28;20663;-91
2022/04/06 00:46:50;;;;;;;3.43;3.17;;;;;;;;;;5099838;28;20314;-91
2022/04/06 00:49:17;;;;;;;3.63;3.33;;;;;;;;;;5113545;28;20249;-91
2022/04/06 00:51:45;;;;;;;4.03;3.63;;;;;;;;;;5110779;28;20209;-89
2022/04/06 00:54:13;;;;;;;4.67;3.20;;;;;;;;;;5110578;28;20207;-91
2022/04/06 00:56:41;;;;;;;4.33;3.67;;;;;;;;;;5113147;28;20257;-90
2022/04/06 00:59:09;;;;;;;3.40;3.10;;;;;;;;;;5113259;28;20640;-91
2022/04/06 01:01:46;;;;;;;4.47;3.43;;;;;;;;;;5105402;27;20208;-91
2022/04/06 01:04:16;;;;;;;3.53;3.23;;;;;;;;;;5111743;27;20204;-91
2022/04/06 01:06:43;;;;;;;3.10;2.63;;;;;;;;;;5111987;28;20674;-91
2022/04/06 01:09:11;;;;;;;3.90;3.40;;;;;;;;;;5113347;28;20208;-91
2022/04/06 01:11:38;;;;;;;3.80;3.40;;;;;;;;;;5108177;28;20212;-91
2022/04/06 01:14:06;;;;;;;4.40;3.20;;;;;;;;;;5112451;28;20715;-91
2022/04/06 01:16:33;;;;;;;4.17;3.20;;;;;;;;;;5112917;28;20231;-91
2022/04/06 01:19:00;;;;;;;4.03;3.20;;;;;;;;;;5113235;28;20238;-91
2022/04/06 01:21:29;;;;;;;4.00;3.60;;;;;;;;;;5104168;28;20211;-90
2022/04/06 01:23:58;;;;;;;3.70;3.30;;;;;;;;;;5116812;27;20818;-92
2022/04/06 01:26:25;;;;;;;3.80;3.23;;;;;;;;;;5113231;28;20244;-91
2022/04/06 01:28:53;;;;;;;5.07;3.03;;;;;;;;;;5101063;28;20916;-91
2022/04/06 01:31:20;;;;;;;4.20;3.20;;;;;;;;;;5111397;28;20208;-91
2022/04/06 01:33:47;;;;;;;5.37;3.70;;;;;;;;;;5118912;27;20252;-91
2022/04/06 01:36:15;;;;;;;3.83;3.43;;;;;;;;;;5119173;27;20235;-91
2022/04/06 01:38:42;;;;;;;3.47;3.17;;;;;;;;;;5107995;28;20260;-91
2022/04/06 01:41:11;;;;;;;5.00;3.23;;;;;;;;;;5113084;28;20204;-90
2022/04/06 01:43:38;;;;;;;4.60;3.27;;;;;;;;;;5112406;28;20215;-91
2022/04/06 01:46:05;;;;;;;3.80;3.20;;;;;;;;;;5100832;28;20220;-91
2022/04/06 01:52:11;;;;;;;4.40;3.17;;;;;;;;;;5108229;28;20204;-91
2022/04/06 01:54:04;;;;;;;2.97;2.77;;;;;;;;;;5105867;28;20564;-91
2022/04/06 01:56:33;;;;;;;3.57;3.27;;;;;;;;;;5104377;28;20235;-91
2022/04/06 01:59:00;;;;;;;4.43;3.20;;;;;;;;;;5112496;28;20219;-91
2022/04/06 02:01:28;;;;;;;3.70;3.10;;;;;;;;;;5112499;28;20237;-91
2022/04/06 02:03:56;;;;;;;3.27;2.97;;;;;;;;;;5108245;28;20199;-91
2022/04/06 02:06:23;;;;;;;4.43;3.13;;;;;;;;;;5105931;28;20223;-91
2022/04/06 02:08:50;;;;;;;3.23;2.93;;;;;;;;;;5112022;28;20206;-91
2022/04/06 02:11:18;;;;;;;4.00;3.60;;;;;;;;;;5112276;28;20235;-91
2022/04/06 02:13:46;;;;;;;4.03;3.23;;;;;;;;;;5103894;28;20201;-91
2022/04/06 02:16:14;;;;;;;3.70;3.30;;;;;;;;;;5111830;28;20240;-91
2022/04/06 02:18:41;;;;;;;3.57;3.07;;;;;;;;;;5115629;28;20207;-91
2022/04/06 02:21:08;;;;;;;3.63;3.33;;;;;;;;;;5114062;28;20214;-91
2022/04/06 02:23:36;;;;;;;3.60;3.30;;;;;;;;;;5110546;28;20208;-91
2022/04/06 02:26:03;;;;;;;4.07;3.40;;;;;;;;;;5116127;28;20302;-91
2022/04/06 02:28:31;;;;;;;4.17;3.20;;;;;;;;;;5107066;28;20207;-90
2022/04/06 02:31:00;;;;;;;5.00;3.47;;;;;;;;;;5111415;28;20269;-92
2022/04/06 02:33:27;;;;;;;3.60;3.30;;;;;;;;;;5111629;28;20642;-90
2022/04/06 02:35:55;;;;;;;4.30;3.37;;;;;;;;;;5107040;28;20228;-91
2022/04/06 02:38:22;;;;;;;3.83;3.40;;;;;;;;;;5116189;28;20208;-91
2022/04/06 02:40:49;;;;;;;4.53;3.70;;;;;;;;;;5115877;28;20214;-91
2022/04/06 02:43:17;;;;;;;5.60;3.40;;;;;;;;;;5105419;28;20215;-91
2022/04/06 02:45:44;;;;;;;3.50;3.20;;;;;;;;;;5112198;28;20220;-91
2022/04/06 02:48:13;;;;;;;3.80;3.40;;;;;;;;;;5116096;28;20680;-91
2022/04/06 02:50:40;;;;;;;4.13;3.20;;;;;;;;;;5112277;28;20215;-90
2022/04/06 02:53:07;;;;;;;4.23;3.50;;;;;;;;;;5115141;28;20211;-91
2022/04/06 02:55:35;;;;;;;4.97;4.00;;;;;;;;;;5115501;28;20220;-91
2022/04/06 02:58:02;;;;;;;5.40;3.90;;;;;;;;;;5115943;28;20212;-91
2022/04/06 03:00:32;;;;;;;4.50;3.50;;;;;;;;;;5103556;28;20219;-91
2022/04/06 03:02:59;;;;;;;5.23;4.00;;;;;;;;;;5113808;28;20199;-91
2022/04/06 03:05:28;;;;;;;5.53;3.90;;;;;;;;;;5115667;28;20228;-91
2022/04/06 03:07:55;;;;;;;3.70;3.40;;;;;;;;;;5110659;28;20261;-91
2022/04/06 03:10:23;;;;;;;4.47;3.43;;;;;;;;;;5114853;28;20208;-91
2022/04/06 03:12:50;;;;;;;5.60;4.37;;;;;;;;;;5115471;28;20203;-91
2022/04/06 03:15:17;;;;;;;4.33;3.93;;;;;;;;;;5104436;28;20292;-91
2022/04/06 03:17:45;;;;;;;4.07;3.63;;;;;;;;;;5105852;28;20226;-91
2022/04/06 03:20:13;;;;;;;4.37;3.70;;;;;;;;;;5115349;28;20249;-91
2022/04/06 03:22:41;;;;;;;4.00;3.70;;;;;;;;;;5115232;28;20299;-90
2022/04/06 03:25:09;;;;;;;6.03;3.80;;;;;;;;;;5101761;27;20231;-91
2022/04/06 03:27:37;;;;;;;5.40;3.33;;;;;;;;;;5110526;28;20222;-92
2022/04/06 03:30:04;;;;;;;4.00;3.60;;;;;;;;;;5114474;28;20208;-91
2022/04/06 03:32:32;;;;;;;4.40;3.67;;;;;;;;;;5108230;28;20216;-90
2022/04/06 03:34:59;;;;;;;4.53;4.13;;;;;;;;;;5120677;27;20200;-91
2022/04/06 03:37:27;;;;;;;5.00;3.93;;;;;;;;;;5115586;28;20834;-92
2022/04/06 03:39:55;;;;;;;5.37;3.77;;;;;;;;;;5113595;28;20208;-91
2022/04/06 03:42:23;;;;;;;4.40;4.00;;;;;;;;;;5102049;28;20207;-91
2022/04/06 03:44:50;;;;;;;5.00;4.00;;;;;;;;;;5122158;27;20200;-91
2022/04/06 03:47:18;;;;;;;4.13;3.53;;;;;;;;;;5114988;28;20220;-91
2022/04/06 03:49:45;;;;;;;4.50;3.80;;;;;;;;;;5111744;28;20208;-92
2022/04/06 03:52:13;;;;;;;4.50;3.63;;;;;;;;;;5108885;28;20207;-91
2022/04/06 03:54:40;;;;;;;4.73;4.00;;;;;;;;;;5114178;28;20208;-92
2022/04/06 03:57:09;;;;;;;5.40;3.90;;;;;;;;;;5115225;28;20224;-91
2022/04/06 03:59:36;;;;;;;5.40;3.80;;;;;;;;;;5105245;28;20286;-91
2022/04/06 04:02:04;;;;;;;5.17;3.93;;;;;;;;;;5113320;28;20207;-91
2022/04/06 04:04:31;;;;;;;6.07;4.23;;;;;;;;;;5129169;27;20208;-91
2022/04/06 04:06:58;;;;;;;5.00;3.87;;;;;;;;;;5128047;27;20231;-91
2022/04/06 04:09:26;;;;;;;4.60;3.90;;;;;;;;;;5095936;28;20204;-91
2022/04/06 04:11:56;;;;;;;4.50;3.97;;;;;;;;;;5111609;28;20208;-91
2022/04/06 04:14:25;;;;;;;3.63;3.33;;;;;;;;;;5127919;27;20203;-91
2022/04/06 04:16:52;;;;;;;4.07;3.67;;;;;;;;;;5127593;27;20312;-91
2022/04/06 04:19:20;;;;;;;4.53;3.43;;;;;;;;;;5106866;28;20208;-92
2022/04/06 04:21:47;;;;;;;4.53;4.13;;;;;;;;;;5114214;28;20203;-91
2022/04/06 04:24:14;;;;;;;4.10;3.70;;;;;;;;;;5125429;27;20203;-91
2022/04/06 04:26:42;;;;;;;4.10;3.70;;;;;;;;;;5106708;27;20228;-90
2022/04/06 04:29:09;;;;;;;3.60;3.27;;;;;;;;;;5109242;28;20673;-91
2022/04/06 04:31:38;;;;;;;5.13;3.93;;;;;;;;;;5107894;28;20239;-92
2022/04/06 04:34:06;;;;;;;4.90;3.90;;;;;;;;;;5113428;28;20200;-91
2022/04/06 04:36:33;;;;;;;4.43;3.87;;;;;;;;;;5103575;28;20219;-91
2022/04/06 04:39:01;;;;;;;3.67;3.33;;;;;;;;;;5111787;28;20212;-91
2022/04/06 04:41:28;;;;;;;4.40;3.70;;;;;;;;;;5110342;28;20208;-91
2022/04/06 04:43:55;;;;;;;4.03;3.63;;;;;;;;;;5102986;28;20201;-90
2022/04/06 04:46:23;;;;;;;4.10;3.70;;;;;;;;;;5107628;28;20224;-91
2022/04/06 04:48:52;;;;;;;5.10;4.20;;;;;;;;;;5112437;28;20208;-91
2022/04/06 04:51:19;;;;;;;6.93;3.70;;;;;;;;;;5111044;28;20208;-90
2022/04/06 04:53:46;;;;;;;4.37;3.60;;;;;;;;;;5108600;27;20601;-90
2022/04/06 04:56:15;;;;;;;5.03;4.10;;;;;;;;;;5113530;28;20220;-91
2022/04/06 04:58:52;;;;;;;4.60;3.80;;;;;;;;;;5113437;28;20200;-91
2022/04/06 05:01:20;;;;;;;3.70;3.40;;;;;;;;;;5107119;27;20208;-90
2022/04/06 05:03:48;;;;;;;4.73;3.67;;;;;;;;;;5115938;27;20276;-90
2022/04/06 05:06:17;;;;;;;4.27;3.87;;;;;;;;;;5119115;27;20574;-90
2022/04/06 05:08:45;;;;;;;4.47;3.43;;;;;;;;;;5108450;27;20701;-90
2022/04/06 05:11:13;;;;;;;4.63;3.70;;;;;;;;;;5105080;28;20207;-91
2022/04/06 05:13:43;;;;;;;6.67;3.50;;;;;;;;;;5112601;28;20295;-90
2022/04/06 05:16:10;;;;;;;3.30;3.00;;;;;;;;;;5113145;28;20232;-91
2022/04/06 05:18:37;;;;;;;5.87;3.50;;;;;;;;;;5103013;28;20207;-90
2022/04/06 05:21:07;;;;;;;5.23;3.77;;;;;;;;;;5118518;27;20204;-91
2022/04/06 05:26:17;;;;;;;4.80;4.10;;;;;;;;;;5110556;28;20239;-90
2022/04/06 05:28:45;;;;;;;6.03;4.00;;;;;;;;;;5108978;28;20219;-89
2022/04/06 05:31:12;;;;;;;4.60;3.87;;;;;;;;;;5113264;28;20216;-91
2022/04/06 05:33:39;;;;;;;5.67;4.17;;;;;;;;;;5113081;28;20234;-91
2022/04/06 05:36:07;;;;;;;6.73;4.47;;;;;;;;;;5100066;28;20220;-91
2022/04/06 05:38:36;;;;;;;4.27;3.67;;;;;;;;;;5114290;28;20332;-91
2022/04/06 05:41:04;;;;;;;6.53;4.10;;;;;;;;;;5117615;28;20204;-91
2022/04/06 05:43:38;;;;;;;4.93;3.83;;;;;;;;;;5109014;27;20218;-91
2022/04/06 05:46:05;;;;;;;4.37;3.83;;;;;;;;;;5111845;28;20219;-91
2022/04/06 05:48:34;;;;;;;4.67;3.70;;;;;;;;;;5112604;28;20292;-91
2022/04/06 05:51:02;;;;;;;8.47;4.40;;;;;;;;;;5103261;28;20205;-91
2022/04/06 05:53:30;;;;;;;22.47;15.30;;;;;;;;;;5108188;28;20207;-91
2022/04/06 05:55:58;;;;;;;4.97;3.93;;;;;;;;;;5117249;28;20220;-91
2022/04/06 05:58:26;;;;;;;5.73;4.20;;;;;;;;;;5109434;27;20203;-91
2022/04/06 06:00:53;;;;;;;6.27;4.10;;;;;;;;;;5114601;28;20199;-91
2022/04/06 06:03:20;;;;;;;3.73;3.43;;;;;;;;;;5112288;28;20286;-91
2022/04/06 06:05:47;;;;;;;4.57;4.10;;;;;;;;;;5112491;28;20228;-90
2022/04/06 06:08:15;;;;;;;5.10;3.70;;;;;;;;;;5109950;28;20216;-91
2022/04/06 06:10:42;;;;;;;7.03;3.90;;;;;;;;;;5112381;28;20219;-92
2022/04/06 06:13:11;;;;;;;5.87;4.40;;;;;;;;;;5112637;28;20211;-91
2022/04/06 06:15:38;;;;;;;4.67;3.83;;;;;;;;;;5108541;28;20224;-90
2022/04/06 06:18:06;;;;;;;4.43;4.03;;;;;;;;;;5099301;28;20618;-90
2022/04/06 06:20:33;;;;;;;4.17;3.80;;;;;;;;;;5112259;28;20642;-91
2022/04/06 06:23:00;;;;;;;6.00;4.43;;;;;;;;;;5110677;28;20261;-91
2022/04/06 06:25:28;;;;;;;3.93;3.53;;;;;;;;;;5104309;28;20591;-90
2022/04/06 06:27:55;;;;;;;16.00;9.17;;;;;;;;;;5109611;28;20269;-90
2022/04/06 06:30:26;;;;;;;3.93;3.53;;;;;;;;;;5112573;28;20211;-91
2022/04/06 06:32:54;;;;;;;4.87;4.03;;;;;;;;;;5109561;28;20296;-91
2022/04/06 06:35:23;;;;;;;4.10;3.70;;;;;;;;;;5107437;28;20277;-91
2022/04/06 06:37:52;;;;;;;5.07;3.80;;;;;;;;;;5114667;28;20199;-91
2022/04/06 06:40:19;;;;;;;4.13;3.37;;;;;;;;;;5132873;28;20560;-90
2022/04/06 06:42:47;;;;;;;2.97;2.73;;;;;;;;;;5101609;28;20204;-91
2022/04/06 06:45:14;;;;;;;4.10;3.43;;;;;;;;;;5111739;28;20273;-91
2022/04/06 06:47:43;;;;;;;2.37;2.17;;;;;;;;;;5112320;28;20224;-90
2022/04/06 06:50:11;;;;;;;2.20;2.00;;;;;;;;;;5105834;28;20204;-90
2022/04/06 06:52:38;;;;;;;2.37;2.17;;;;;;;;;;5106483;28;20200;-90
2022/04/06 06:55:07;;;;;;;2.00;1.80;;;;;;;;;;5111281;28;20697;-90
2022/04/06 06:57:34;;;;;;;2.37;2.00;;;;;;;;;;5112323;28;20200;-92
2022/04/06 07:00:01;;;;;;;1.97;1.70;;;;;;;;;;5112184;28;20212;-90
2022/04/06 07:02:35;;;;;;;2.23;2.03;;;;;;;;;;5099314;28;20266;-89
2022/04/06 07:05:04;;;;;;;2.30;2.03;;;;;;;;;;5109447;28;20678;-90
2022/04/06 07:07:31;;;;;;;2.80;2.10;;;;;;;;;;5112631;27;20245;-89
2022/04/06 07:10:00;;;;;;;5.97;2.03;;;;;;;;;;5113071;28;20214;-89
2022/04/06 07:12:27;;;;;;;1.93;1.83;;;;;;;;;;5106995;28;20215;-90
2022/04/06 07:14:54;;;;;;;2.20;1.93;;;;;;;;;;5103721;28;20207;-91
2022/04/06 07:17:22;;;;;;;2.60;2.40;;;;;;;;;;5108160;28;20208;-91
2022/04/06 07:19:49;;;;;;;1.67;1.57;;;;;;;;;;5112806;28;20200;-91
2022/04/06 07:22:18;;;;;;;2.43;1.70;;;;;;;;;;5105299;28;20208;-90
2022/04/06 07:24:45;;;;;;;1.83;1.67;;;;;;;;;;5108824;28;20624;-90
2022/04/06 07:27:13;;;;;;;2.00;1.70;;;;;;;;;;5112595;28;20219;-91
2022/04/06 07:29:40;;;;;;;2.03;1.80;;;;;;;;;;5107061;28;20975;-90
2022/04/06 07:32:08;;;;;;;2.20;1.50;;;;;;;;;;5104536;28;20620;-90
2022/04/06 07:34:35;;;;;;;1.80;1.43;;;;;;;;;;5114436;27;20200;-90
2022/04/06 07:37:02;;;;;;;2.00;1.80;;;;;;;;;;5113296;28;20236;-90
2022/04/06 07:39:31;;;;;;;2.67;1.87;;;;;;;;;;5104862;28;20212;-90
2022/04/06 07:41:58;;;;;;;4.37;2.73;;;;;;;;;;5115404;27;20204;-90
2022/04/06 07:44:26;;;;;;;2.77;1.80;;;;;;;;;;5129724;27;20268;-90
2022/04/06 07:46:53;;;;;;;4.87;1.93;;;;;;;;;;5131063;27;20300;-90
2022/04/06 07:49:20;;;;;;;2.70;2.33;;;;;;;;;;5114753;28;20255;-90
2022/04/06 07:51:48;;;;;;;3.47;1.70;;;;;;;;;;5118133;28;20199;-91
2022/04/06 07:54:15;;;;;;;2.00;1.90;;;;;;;;;;5113173;28;20257;-90
2022/04/06 07:56:44;;;;;;;1.40;1.30;;;;;;;;;;5105288;27;20231;-91
2022/04/06 07:59:11;;;;;;;2.17;1.90;;;;;;;;;;5112228;28;20204;-91
2022/04/06 08:01:39;;;;;;;2.30;1.90;;;;;;;;;;5112681;28;20624;-90
2022/04/06 08:04:06;;;;;;;2.90;2.27;;;;;;;;;;5107225;28;20215;-90
2022/04/06 08:06:33;;;;;;;2.37;2.10;;;;;;;;;;5103571;28;20224;-91
2022/04/06 08:09:02;;;;;;;2.87;1.87;;;;;;;;;;5111879;28;20224;-90
2022/04/06 08:11:30;;;;;;;2.70;2.10;;;;;;;;;;5112474;28;20212;-90
2022/04/06 08:13:58;;;;;;;2.60;2.13;;;;;;;;;;5102657;28;20217;-91
2022/04/06 08:16:26;;;;;;;2.00;1.90;;;;;;;;;;5109293;28;20232;-91
2022/04/06 08:18:53;;;;;;;2.10;2.00;;;;;;;;;;5111989;28;20245;-90
2022/04/06 08:21:21;;;;;;;3.00;2.70;;;;;;;;;;5110793;28;20301;-90
2022/04/06 08:23:48;;;;;;;3.03;2.10;;;;;;;;;;5104791;28;20212;-91
2022/04/06 08:26:15;;;;;;;2.33;2.13;;;;;;;;;;5112935;27;20220;-89
2022/04/06 08:28:42;;;;;;;2.67;1.83;;;;;;;;;;5111940;28;20224;-91
2022/04/06 08:31:11;;;;;;;1.60;1.50;;;;;;;;;;5103609;28;20284;-91
2022/04/06 08:33:38;;;;;;;3.17;2.07;;;;;;;;;;5110281;28;20208;-90
2022/04/06 08:36:06;;;;;;;1.90;1.80;;;;;;;;;;5111224;28;20289;-91
2022/04/06 08:38:34;;;;;;;2.77;2.00;;;;;;;;;;5109218;28;20214;-90
2022/04/06 08:41:01;;;;;;;1.50;1.40;;;;;;;;;;5103105;28;20204;-90
2022/04/06 08:43:29;;;;;;;2.30;2.03;;;;;;;;;;5110858;28;20221;-91
2022/04/06 08:45:56;;;;;;;3.43;1.80;;;;;;;;;;5111092;28;20285;-91
2022/04/06 08:48:29;;;;;;;1.90;1.80;;;;;;;;;;5107535;28;20216;-91
2022/04/06 08:50:58;;;;;;;3.67;1.93;;;;;;;;;;5103410;28;20232;-90
2022/04/06 08:53:25;;;;;;;2.50;1.70;;;;;;;;;;5110606;28;20285;-90
2022/04/06 08:55:53;;;;;;;1.57;1.10;;;;;;;;;;5111689;28;20713;-91
2022/04/06 08:58:20;;;;;;;2.77;1.90;;;;;;;;;;5101850;28;20200;-91
2022/04/06 09:00:47;;;;;;;1.50;1.40;;;;;;;;;;5117814;27;20215;-91
2022/04/06 09:03:16;;;;;;;2.30;1.30;;;;;;;;;;5116101;27;20207;-90
2022/04/06 09:05:45;;;;;;;1.40;1.30;;;;;;;;;;5108577;27;20216;-91
2022/04/06 09:08:12;;;;;;;1.80;1.40;;;;;;;;;;5105245;27;20315;-91
2022/04/06 09:10:41;;;;;;;1.73;1.33;;;;;;;;;;5113224;28;20670;-90
2022/04/06 09:13:09;;;;;;;1.50;1.40;;;;;;;;;;5122806;27;20198;-91
2022/04/06 09:15:36;;;;;;;1.70;1.60;;;;;;;;;;5119165;27;20271;-90
2022/04/06 09:18:04;;;;;;;1.47;1.30;;;;;;;;;;5109974;27;20219;-91
2022/04/06 09:20:32;;;;;;;2.40;1.67;;;;;;;;;;5116640;27;20203;-91
2022/04/06 09:23:02;;;;;;;3.13;1.50;;;;;;;;;;5114338;27;20288;-90
2022/04/06 09:25:34;;;;;;;2.80;1.30;;;;;;;;;;5100741;28;20231;-91
2022/04/06 09:28:07;;;;;;;1.57;1.30;;;;;;;;;;5111698;28;20261;-91
2022/04/06 09:30:36;;;;;;;0.90;0.90;;;;;;;;;;5118300;27;20283;-91
2022/04/06 09:33:04;;;;;;;0.97;0.93;;;;;;;;;;5114423;27;20249;-91
2022/04/06 09:35:34;;;;;;;2.43;1.20;;;;;;;;;;5112562;28;20259;-91
2022/04/06 09:38:12;;;;;;;1.10;1.10;;;;;;;;;;5118705;27;20199;-91
2022/04/06 09:40:39;;;;;;;1.03;1.00;;;;;;;;;;5108108;28;20598;-91
2022/04/06 09:43:07;;;;;;;1.27;1.17;;;;;;;;;;5116968;27;20245;-91
2022/04/06 09:48:19;;;;;;;1.10;1.00;;;;;;;;;;5107326;28;20317;-91
2022/04/06 09:50:56;;;;;;;1.07;0.97;;;;;;;;;;5109447;27;20200;-91
2022/04/06 09:53:27;;;;;;;1.20;1.10;;;;;;;;;;5112761;27;20612;-91
2022/04/06 09:55:57;;;;;;;1.10;1.00;;;;;;;;;;5115095;27;20228;-90
2022/04/06 09:58:25;;;;;;;4.57;1.50;;;;;;;;;;5111148;27;20243;-91
2022/04/06 10:00:54;;;;;;;1.03;1.03;;;;;;;;;;5105000;28;20216;-91
2022/04/06 10:03:22;;;;;;;1.53;1.17;;;;;;;;;;5116831;27;20226;-91
2022/04/06 10:05:51;;;;;;;1.07;1.00;;;;;;;;;;5121042;27;20224;-91
2022/04/06 10:08:19;;;;;;;2.03;0.80;;;;;;;;;;5109226;28;20231;-90
2022/04/06 10:10:50;;;;;;;1.43;1.33;;;;;;;;;;5113288;28;20227;-91
2022/04/06 10:13:20;;;;;;;1.07;1.07;;;;;;;;;;5112312;28;20208;-90
2022/04/06 10:15:48;;;;;;;1.77;1.00;;;;;;;;;;5103315;28;20232;-90
2022/04/06 10:18:17;;;;;;;6.27;1.03;;;;;;;;;;5109077;28;20207;-90
2022/04/06 10:20:48;;;;;;;1.67;1.30;;;;;;;;;;5112943;28;20204;-90
2022/04/06 10:23:21;;;;;;;1.13;1.00;;;;;;;;;;5109860;28;20207;-90
2022/04/06 10:25:58;;;;;;;3.77;1.00;;;;;;;;;;5111586;28;20248;-90
2022/04/06 10:28:25;;;;;;;0.70;0.70;;;;;;;;;;5112165;28;20244;-90
2022/04/06 10:31:22;;;;;;;1.03;0.60;;;;;;;;;;5110840;28;20256;-89
2022/04/06 10:33:50;;;;;;;1.70;0.90;;;;;;;;;;5055300;28;20244;-89
2022/04/06 10:36:18;;;;;;;0.40;0.40;;;;;;;;;;5112103;28;20216;-90
2022/04/06 10:39:04;;;;;;;0.43;0.43;;;;;;;;;;5113892;28;20286;-90
2022/04/06 10:41:33;;;;;;;0.60;0.57;;;;;;;;;;5108062;28;20211;-89
2022/04/06 10:44:01;;;;;;;2.63;0.53;;;;;;;;;;5120569;28;20203;-90
2022/04/06 10:46:38;;;;;;;1.17;0.50;;;;;;;;;;5121677;28;20235;-92
2022/04/06 10:49:15;;;;;;;0.60;0.60;;;;;;;;;;5116484;28;20272;-91
2022/04/06 10:51:43;;;;;;;0.83;0.57;;;;;;;;;;5107630;28;20255;-91
2022/04/06 10:54:27;;;;;;;1.33;0.60;;;;;;;;;;5107216;28;20272;-91
2022/04/06 10:57:01;;;;;;;1.63;0.80;;;;;;;;;;5101121;28;20280;-91
2022/04/06 10:59:29;;;;;;;1.43;0.50;;;;;;;;;;5108590;28;20200;-91
2022/04/06 11:02:11;;;;;;;0.40;0.40;;;;;;;;;;5115060;28;20200;-90
2022/04/06 11:04:40;;;;;;;1.13;0.50;;;;;;;;;;5116024;28;20264;-90
2022/04/06 11:07:08;;;;;;;0.50;0.50;;;;;;;;;;5110210;28;20234;-91
2022/04/06 11:12:23;;;;;;;0.40;0.40;;;;;;;;;;5111887;27;20203;-90
2022/04/06 11:14:51;;;;;;;0.60;0.60;;;;;;;;;;5109917;27;20200;-90
2022/04/06 11:17:38;;;;;;;0.60;0.60;;;;;;;;;;5109996;28;20307;-91
2022/04/06 11:20:09;;;;;;;0.50;0.50;;;;;;;;;;5115516;28;20196;-91
2022/04/06 11:22:38;;;;;;;0.60;0.47;;;;;;;;;;5115462;28;20200;-90
2022/04/06 11:25:08;;;;;;;0.50;0.50;;;;;;;;;;5107093;27;20291;-90
2022/04/06 11:27:37;;;;;;;0.43;0.43;;;;;;;;;;5117880;27;20279;-90
2022/04/06 11:30:07;;;;;;;0.40;0.40;;;;;;;;;;5117244;27;20228;-90
2022/04/06 11:32:34;;;;;;;0.30;0.30;;;;;;;;;;5123266;27;20207;-90
2022/04/06 11:35:03;;;;;;;0.43;0.40;;;;;;;;;;5107928;28;20230;-90
2022/04/06 11:37:30;;;;;;;0.30;0.30;;;;;;;;;;5115153;28;20232;-90
2022/04/06 11:39:58;;;;;;;0.50;0.40;;;;;;;;;;5115483;28;20204;-91
2022/04/06 11:42:26;;;;;;;0.63;0.40;;;;;;;;;;5103956;28;20212;-91
2022/04/06 11:44:54;;;;;;;0.87;0.50;;;;;;;;;;5112690;27;20223;-90
2022/04/06 11:47:28;;;;;;;0.30;0.30;;;;;;;;;;5115068;28;20204;-90
2022/04/06 11:49:55;;;;;;;0.93;0.40;;;;;;;;;;5114615;27;20220;-90
2022/04/06 11:52:23;;;;;;;0.30;0.30;;;;;;;;;;5107983;28;20234;-90
2022/04/06 11:54:52;;;;;;;0.60;0.60;;;;;;;;;;5114345;28;20260;-90
2022/04/06 11:57:19;;;;;;;0.50;0.50;;;;;;;;;;5115235;28;20299;-90
2022/04/06 11:59:55;;;;;;;0.43;0.43;;;;;;;;;;5106925;27;20655;-90
2022/04/06 12:02:22;;;;;;;0.53;0.50;;;;;;;;;;5110085;28;20203;-90
2022/04/06 12:05:00;;;;;;;1.23;0.50;;;;;;;;;;5114352;28;20200;-87
2022/04/06 12:07:27;;;;;;;0.50;0.50;;;;;;;;;;5108937;28;20277;-88
2022/04/06 12:09:55;;;;;;;0.40;0.40;;;;;;;;;;5113522;28;20647;-88
2022/04/06 12:12:23;;;;;;;0.30;0.30;;;;;;;;;;5114606;28;20239;-88
2022/04/06 12:14:51;;;;;;;0.40;0.40;;;;;;;;;;5109000;28;20204;-88
2022/04/06 12:17:20;;;;;;;0.40;0.40;;;;;;;;;;5107238;28;20224;-87
2022/04/06 12:19:47;;;;;;;0.73;0.60;;;;;;;;;;5114286;28;20196;-88
2022/04/06 12:22:15;;;;;;;0.50;0.50;;;;;;;;;;5111972;28;20204;-87
2022/04/06 12:24:43;;;;;;;0.33;0.33;;;;;;;;;;5107939;27;20214;-89
2022/04/06 12:27:11;;;;;;;0.50;0.50;;;;;;;;;;5113986;28;20634;-88
2022/04/06 12:29:39;;;;;;;0.43;0.43;;;;;;;;;;5114325;28;20226;-88
2022/04/06 12:32:08;;;;;;;0.40;0.40;;;;;;;;;;5099161;27;20211;-88
2022/04/06 12:34:37;;;;;;;0.50;0.50;;;;;;;;;;5109022;28;20214;-88
2022/04/06 12:39:51;;;;;;;0.37;0.37;;;;;;;;;;5110801;28;20209;-87
2022/04/06 12:42:19;;;;;;;1.20;0.53;;;;;;;;;;5111503;28;20211;-87
2022/04/06 12:44:57;;;;;;;0.40;0.40;;;;;;;;;;5113347;28;20196;-88
2022/04/06 12:47:24;;;;;;;0.40;0.40;;;;;;;;;;5112641;28;20579;-88
2022/04/06 12:49:53;;;;;;;0.70;0.60;;;;;;;;;;5106678;28;20282;-88
2022/04/06 12:52:22;;;;;;;0.50;0.50;;;;;;;;;;5113907;28;20266;-88
2022/04/06 12:54:50;;;;;;;0.40;0.40;;;;;;;;;;5113724;28;20204;-87
2022/04/06 12:57:19;;;;;;;0.47;0.47;;;;;;;;;;5106790;28;20665;-88
2022/04/06 12:59:47;;;;;;;0.50;0.50;;;;;;;;;;5111413;28;20204;-88
2022/04/06 13:02:22;;;;;;;0.40;0.40;;;;;;;;;;5113936;28;20242;-88
2022/04/06 13:04:49;;;;;;;0.60;0.60;;;;;;;;;;5112699;28;20649;-87
2022/04/06 13:07:18;;;;;;;1.10;0.50;;;;;;;;;;5107992;28;20240;-88
2022/04/06 13:09:53;;;;;;;0.27;0.23;;;;;;;;;;5109682;28;20261;-88
2022/04/06 13:12:21;;;;;;;0.20;0.20;;;;;;;;;;5113646;28;20665;-88
2022/04/06 13:14:48;;;;;;;0.57;0.57;;;;;;;;;;5111322;28;20212;-87
2022/04/06 13:17:18;;;;;;;1.50;0.43;;;;;;;;;;5094224;28;20224;-88
2022/04/06 13:19:46;;;;;;;0.60;0.60;;;;;;;;;;5109788;28;20286;-88
2022/04/06 13:22:13;;;;;;;0.50;0.50;;;;;;;;;;5122957;27;20199;-89
2022/04/06 13:24:42;;;;;;;0.40;0.40;;;;;;;;;;5104512;28;20211;-89
2022/04/06 13:27:10;;;;;;;0.50;0.50;;;;;;;;;;5104511;28;20280;-89
2022/04/06 13:29:38;;;;;;;0.37;0.37;;;;;;;;;;5113192;28;20700;-88
2022/04/06 13:32:05;;;;;;;0.30;0.30;;;;;;;;;;5103053;28;20212;-88
2022/04/06 13:34:33;;;;;;;0.93;0.20;;;;;;;;;;5114018;27;20265;-89
2022/04/06 13:37:00;;;;;;;1.60;0.30;;;;;;;;;;5112930;28;20224;-89
2022/04/06 13:39:28;;;;;;;0.60;0.60;;;;;;;;;;5127262;27;20660;-88
2022/04/06 13:41:59;;;;;;;0.53;0.53;;;;;;;;;;5106587;28;20207;-88
2022/04/06 13:44:27;;;;;;;0.80;0.80;;;;;;;;;;5119588;27;20200;-89
2022/04/06 13:46:55;;;;;;;0.53;0.53;;;;;;;;;;5120233;27;20211;-88
2022/04/06 13:49:22;;;;;;;0.87;0.60;;;;;;;;;;5129706;27;20223;-88
2022/04/06 13:51:50;;;;;;;3.03;0.50;;;;;;;;;;5105689;28;20281;-89
2022/04/06 13:54:18;;;;;;;0.30;0.30;;;;;;;;;;5112488;28;20196;-88
2022/04/06 13:56:46;;;;;;;0.77;0.20;;;;;;;;;;5113102;28;20224;-88
2022/04/06 13:59:14;;;;;;;2.10;0.33;;;;;;;;;;5109441;28;20204;-89
2022/04/06 14:01:42;;;;;;;0.40;0.40;;;;;;;;;;5108284;28;20577;-89
2022/04/06 14:04:10;;;;;;;0.50;0.50;;;;;;;;;;5103547;28;20276;-89
2022/04/06 14:06:37;;;;;;;0.40;0.40;;;;;;;;;;5112824;28;20258;-89
2022/04/06 14:09:05;;;;;;;0.50;0.50;;;;;;;;;;5102344;28;20617;-89
2022/04/06 14:11:33;;;;;;;0.40;0.40;;;;;;;;;;5106975;28;20204;-89
2022/04/06 14:14:00;;;;;;;0.30;0.30;;;;;;;;;;5111706;28;20232;-88
2022/04/06 14:16:30;;;;;;;0.30;0.30;;;;;;;;;;5109453;28;20276;-90
2022/04/06 14:18:59;;;;;;;0.60;0.50;;;;;;;;;;5110212;28;20649;-89
2022/04/06 14:21:28;;;;;;;0.60;0.60;;;;;;;;;;5112153;28;20285;-90
2022/04/06 14:23:56;;;;;;;0.40;0.40;;;;;;;;;;5112428;28;20211;-90
2022/04/06 14:26:23;;;;;;;0.40;0.40;;;;;;;;;;5106910;28;20224;-89
2022/04/06 14:28:51;;;;;;;2.27;0.63;;;;;;;;;;5102281;28;20265;-88
2022/04/06 14:31:18;;;;;;;0.43;0.43;;;;;;;;;;5112525;28;20674;-89
2022/04/06 14:33:47;;;;;;;1.00;0.57;;;;;;;;;;5111044;28;20231;-89
2022/04/06 14:36:15;;;;;;;0.50;0.50;;;;;;;;;;5110352;28;20236;-89
2022/04/06 14:38:42;;;;;;;0.40;0.40;;;;;;;;;;5112522;28;20209;-89
2022/04/06 14:41:10;;;;;;;0.50;0.50;;;;;;;;;;5112151;28;20712;-89
2022/04/06 14:43:37;;;;;;;0.70;0.50;;;;;;;;;;5104174;28;20211;-89
2022/04/06 14:46:06;;;;;;;0.40;0.40;;;;;;;;;;5111690;28;20232;-90
2022/04/06 14:48:33;;;;;;;0.33;0.33;;;;;;;;;;5112540;28;20292;-89
2022/04/06 14:51:02;;;;;;;0.37;0.37;;;;;;;;;;5112093;28;20678;-90
2022/04/06 14:53:29;;;;;;;0.40;0.40;;;;;;;;;;5103596;28;20208;-89
2022/04/06 14:55:57;;;;;;;0.40;0.40;;;;;;;;;;5110014;28;20227;-89
2022/04/06 14:58:24;;;;;;;0.90;0.40;;;;;;;;;;5112364;28;20234;-89
2022/04/06 15:00:51;;;;;;;0.73;0.40;;;;;;;;;;5102091;28;20205;-89
2022/04/06 15:03:19;;;;;;;0.30;0.30;;;;;;;;;;5104798;28;20261;-89
2022/04/06 15:05:47;;;;;;;1.80;0.50;;;;;;;;;;5111842;28;20655;-89